sensor_id;sensor_type;location;lat;lon;timestamp;P1;durP1;ratioP1;P2;durP2;ratioP2
14474;SDS011;7323;50.848;4.334;2022-09-24T00:01:07;13.67;;;12.30;;
14474;SDS011;7323;50.848;4.334;2022-09-24T00:03:39;15.17;;;13.57;;
14474;SDS011;7323;50.848;4.334;2022-09-24T00:06:06;16.10;;;14.33;;
14474;SDS011;7323;50.848;4.334;2022-09-24T00:08:33;16.00;;;14.20;;
14474;SDS011;7323;50.848;4.334;2022-09-24T00:11:01;16.43;;;13.93;;
14474;SDS011;7323;50.848;4.334;2022-09-24T00:13:28;16.63;;;13.77;;
14474;SDS011;7323;50.848;4.334;2022-09-24T00:16:00;15.70;;;12.73;;
14474;SDS011;7323;50.848;4.334;2022-09-24T00:18:29;15.27;;;13.67;;
14474;SDS011;7323;50.848;4.334;2022-09-24T00:20:54;16.37;;;13.53;;
14474;SDS011;7323;50.848;4.334;2022-09-24T00:23:22;15.37;;;12.53;;
14474;SDS011;7323;50.848;4.334;2022-09-24T00:25:51;14.10;;;12.60;;
14474;SDS011;7323;50.848;4.334;2022-09-24T00:28:41;14.47;;;12.33;;
14474;SDS011;7323;50.848;4.334;2022-09-24T00:31:08;14.07;;;12.57;;
14474;SDS011;7323;50.848;4.334;2022-09-24T00:33:36;15.47;;;12.50;;
14474;SDS011;7323;50.848;4.334;2022-09-24T00:36:04;12.77;;;11.47;;
14474;SDS011;7323;50.848;4.334;2022-09-24T00:38:30;12.90;;;11.60;;
14474;SDS011;7323;50.848;4.334;2022-09-24T00:40:58;12.87;;;11.57;;
14474;SDS011;7323;50.848;4.334;2022-09-24T00:43:26;14.00;;;11.53;;
14474;SDS011;7323;50.848;4.334;2022-09-24T00:46:01;12.87;;;11.57;;
14474;SDS011;7323;50.848;4.334;2022-09-24T00:48:52;13.13;;;10.67;;
14474;SDS011;7323;50.848;4.334;2022-09-24T00:51:23;13.17;;;11.20;;
14474;SDS011;7323;50.848;4.334;2022-09-24T00:53:53;12.53;;;10.50;;
14474;SDS011;7323;50.848;4.334;2022-09-24T00:56:23;12.30;;;10.50;;
14474;SDS011;7323;50.848;4.334;2022-09-24T00:58:52;12.97;;;11.57;;
14474;SDS011;7323;50.848;4.334;2022-09-24T01:01:21;14.03;;;11.73;;
14474;SDS011;7323;50.848;4.334;2022-09-24T01:03:48;12.90;;;11.50;;
14474;SDS011;7323;50.848;4.334;2022-09-24T01:06:17;13.27;;;11.80;;
14474;SDS011;7323;50.848;4.334;2022-09-24T01:08:42;15.70;;;13.03;;
14474;SDS011;7323;50.848;4.334;2022-09-24T01:11:12;14.67;;;11.77;;
14474;SDS011;7323;50.848;4.334;2022-09-24T01:19:27;17.97;;;14.30;;
14474;SDS011;7323;50.848;4.334;2022-09-24T01:30:48;16.30;;;14.60;;
14474;SDS011;7323;50.848;4.334;2022-09-24T01:33:19;17.37;;;15.00;;
14474;SDS011;7323;50.848;4.334;2022-09-24T01:35:53;16.73;;;14.30;;
14474;SDS011;7323;50.848;4.334;2022-09-24T01:38:25;17.47;;;15.63;;
14474;SDS011;7323;50.848;4.334;2022-09-24T01:40:59;17.03;;;15.20;;
14474;SDS011;7323;50.848;4.334;2022-09-24T01:43:27;17.97;;;15.33;;
14474;SDS011;7323;50.848;4.334;2022-09-24T01:45:54;16.93;;;15.17;;
14474;SDS011;7323;50.848;4.334;2022-09-24T01:48:23;17.70;;;15.80;;
14474;SDS011;7323;50.848;4.334;2022-09-24T01:50:59;18.23;;;15.97;;
14474;SDS011;7323;50.848;4.334;2022-09-24T01:53:40;17.10;;;15.30;;
14474;SDS011;7323;50.848;4.334;2022-09-24T01:56:25;17.30;;;15.47;;
14474;SDS011;7323;50.848;4.334;2022-09-24T01:59:18;19.30;;;15.87;;
14474;SDS011;7323;50.848;4.334;2022-09-24T02:01:57;18.20;;;16.30;;
14474;SDS011;7323;50.848;4.334;2022-09-24T02:04:32;18.97;;;16.20;;
14474;SDS011;7323;50.848;4.334;2022-09-24T02:07:04;18.03;;;16.23;;
14474;SDS011;7323;50.848;4.334;2022-09-24T02:09:38;20.30;;;15.57;;
14474;SDS011;7323;50.848;4.334;2022-09-24T02:12:23;18.07;;;16.07;;
14474;SDS011;7323;50.848;4.334;2022-09-24T02:15:07;19.30;;;15.40;;
14474;SDS011;7323;50.848;4.334;2022-09-24T02:17:39;16.07;;;14.40;;
14474;SDS011;7323;50.848;4.334;2022-09-24T02:20:15;19.17;;;16.60;;
14474;SDS011;7323;50.848;4.334;2022-09-24T02:22:45;16.90;;;15.13;;
14474;SDS011;7323;50.848;4.334;2022-09-24T02:25:14;19.27;;;15.70;;
14474;SDS011;7323;50.848;4.334;2022-09-24T02:27:44;18.67;;;15.23;;
14474;SDS011;7323;50.848;4.334;2022-09-24T02:30:10;16.97;;;14.87;;
14474;SDS011;7323;50.848;4.334;2022-09-24T02:32:40;17.63;;;15.63;;
14474;SDS011;7323;50.848;4.334;2022-09-24T02:35:11;17.60;;;14.93;;
14474;SDS011;7323;50.848;4.334;2022-09-24T02:37:39;18.63;;;15.90;;
14474;SDS011;7323;50.848;4.334;2022-09-24T02:40:08;18.37;;;15.80;;
14474;SDS011;7323;50.848;4.334;2022-09-24T02:42:36;17.23;;;15.40;;
14474;SDS011;7323;50.848;4.334;2022-09-24T02:45:02;17.67;;;15.47;;
14474;SDS011;7323;50.848;4.334;2022-09-24T02:47:29;18.57;;;16.40;;
14474;SDS011;7323;50.848;4.334;2022-09-24T02:49:55;19.47;;;15.83;;
14474;SDS011;7323;50.848;4.334;2022-09-24T02:52:23;19.23;;;16.03;;
14474;SDS011;7323;50.848;4.334;2022-09-24T02:54:48;18.37;;;16.40;;
14474;SDS011;7323;50.848;4.334;2022-09-24T02:57:22;17.23;;;15.43;;
14474;SDS011;7323;50.848;4.334;2022-09-24T03:02:18;19.07;;;16.07;;
14474;SDS011;7323;50.848;4.334;2022-09-24T03:04:43;18.43;;;16.27;;
14474;SDS011;7323;50.848;4.334;2022-09-24T03:07:13;19.67;;;16.23;;
14474;SDS011;7323;50.848;4.334;2022-09-24T03:09:39;18.17;;;16.20;;
14474;SDS011;7323;50.848;4.334;2022-09-24T03:12:05;18.80;;;16.30;;
14474;SDS011;7323;50.848;4.334;2022-09-24T03:14:31;18.43;;;16.27;;
14474;SDS011;7323;50.848;4.334;2022-09-24T03:16:57;19.47;;;16.97;;
14474;SDS011;7323;50.848;4.334;2022-09-24T03:19:23;19.60;;;17.30;;
14474;SDS011;7323;50.848;4.334;2022-09-24T03:21:49;18.30;;;16.40;;
14474;SDS011;7323;50.848;4.334;2022-09-24T03:26:44;20.50;;;16.77;;
14474;SDS011;7323;50.848;4.334;2022-09-24T03:29:10;19.67;;;16.87;;
14474;SDS011;7323;50.848;4.334;2022-09-24T03:31:36;19.30;;;16.50;;
14474;SDS011;7323;50.848;4.334;2022-09-24T03:34:02;19.57;;;16.70;;
14474;SDS011;7323;50.848;4.334;2022-09-24T03:36:28;19.27;;;17.07;;
14474;SDS011;7323;50.848;4.334;2022-09-24T03:38:54;19.40;;;17.30;;
14474;SDS011;7323;50.848;4.334;2022-09-24T03:41:21;20.10;;;17.43;;
14474;SDS011;7323;50.848;4.334;2022-09-24T03:43:52;18.77;;;16.77;;
14474;SDS011;7323;50.848;4.334;2022-09-24T03:46:18;20.13;;;17.70;;
14474;SDS011;7323;50.848;4.334;2022-09-24T03:48:44;20.13;;;17.63;;
14474;SDS011;7323;50.848;4.334;2022-09-24T03:51:15;19.90;;;17.00;;
14474;SDS011;7323;50.848;4.334;2022-09-24T03:53:45;20.80;;;17.87;;
14474;SDS011;7323;50.848;4.334;2022-09-24T03:56:11;20.60;;;17.20;;
14474;SDS011;7323;50.848;4.334;2022-09-24T03:58:39;22.00;;;18.07;;
14474;SDS011;7323;50.848;4.334;2022-09-24T04:01:06;22.40;;;17.00;;
14474;SDS011;7323;50.848;4.334;2022-09-24T04:03:33;20.63;;;18.20;;
14474;SDS011;7323;50.848;4.334;2022-09-24T04:06:00;19.07;;;17.07;;
14474;SDS011;7323;50.848;4.334;2022-09-24T04:08:26;19.43;;;17.30;;
14474;SDS011;7323;50.848;4.334;2022-09-24T04:10:52;20.40;;;18.30;;
14474;SDS011;7323;50.848;4.334;2022-09-24T04:13:19;20.30;;;18.20;;
14474;SDS011;7323;50.848;4.334;2022-09-24T04:15:45;19.50;;;17.47;;
14474;SDS011;7323;50.848;4.334;2022-09-24T04:18:12;19.90;;;17.80;;
14474;SDS011;7323;50.848;4.334;2022-09-24T04:20:38;20.67;;;17.27;;
14474;SDS011;7323;50.848;4.334;2022-09-24T04:23:06;22.97;;;19.87;;
14474;SDS011;7323;50.848;4.334;2022-09-24T04:25:34;19.10;;;17.10;;
14474;SDS011;7323;50.848;4.334;2022-09-24T04:28:01;20.77;;;17.50;;
14474;SDS011;7323;50.848;4.334;2022-09-24T04:30:29;20.20;;;18.13;;
14474;SDS011;7323;50.848;4.334;2022-09-24T04:32:55;19.37;;;17.27;;
14474;SDS011;7323;50.848;4.334;2022-09-24T04:35:24;21.90;;;18.57;;
14474;SDS011;7323;50.848;4.334;2022-09-24T04:37:50;22.40;;;18.40;;
14474;SDS011;7323;50.848;4.334;2022-09-24T04:40:15;21.17;;;18.43;;
14474;SDS011;7323;50.848;4.334;2022-09-24T04:42:42;20.40;;;17.73;;
14474;SDS011;7323;50.848;4.334;2022-09-24T04:45:11;19.50;;;17.43;;
14474;SDS011;7323;50.848;4.334;2022-09-24T04:47:42;20.83;;;18.33;;
14474;SDS011;7323;50.848;4.334;2022-09-24T04:50:09;21.20;;;18.13;;
14474;SDS011;7323;50.848;4.334;2022-09-24T04:52:35;25.43;;;19.47;;
14474;SDS011;7323;50.848;4.334;2022-09-24T04:57:34;21.73;;;19.30;;
14474;SDS011;7323;50.848;4.334;2022-09-24T05:00:04;20.07;;;17.93;;
14474;SDS011;7323;50.848;4.334;2022-09-24T05:02:34;20.97;;;18.70;;
14474;SDS011;7323;50.848;4.334;2022-09-24T05:07:35;20.50;;;17.43;;
14474;SDS011;7323;50.848;4.334;2022-09-24T05:10:01;20.60;;;18.23;;
14474;SDS011;7323;50.848;4.334;2022-09-24T05:12:27;23.50;;;19.10;;
14474;SDS011;7323;50.848;4.334;2022-09-24T05:14:53;26.00;;;20.13;;
14474;SDS011;7323;50.848;4.334;2022-09-24T05:17:18;23.23;;;18.60;;
14474;SDS011;7323;50.848;4.334;2022-09-24T05:19:44;21.20;;;17.93;;
14474;SDS011;7323;50.848;4.334;2022-09-24T05:22:10;21.30;;;18.67;;
14474;SDS011;7323;50.848;4.334;2022-09-24T05:24:35;22.80;;;18.67;;
14474;SDS011;7323;50.848;4.334;2022-09-24T05:27:01;20.70;;;18.30;;
14474;SDS011;7323;50.848;4.334;2022-09-24T05:29:34;21.27;;;17.93;;
14474;SDS011;7323;50.848;4.334;2022-09-24T05:32:11;21.07;;;18.33;;
14474;SDS011;7323;50.848;4.334;2022-09-24T05:34:39;21.47;;;18.47;;
14474;SDS011;7323;50.848;4.334;2022-09-24T05:37:09;22.93;;;19.47;;
14474;SDS011;7323;50.848;4.334;2022-09-24T05:39:38;23.03;;;18.43;;
14474;SDS011;7323;50.848;4.334;2022-09-24T05:42:12;22.87;;;18.43;;
14474;SDS011;7323;50.848;4.334;2022-09-24T05:44:40;19.40;;;17.30;;
14474;SDS011;7323;50.848;4.334;2022-09-24T05:47:14;21.07;;;17.17;;
14474;SDS011;7323;50.848;4.334;2022-09-24T05:49:46;21.67;;;18.63;;
14474;SDS011;7323;50.848;4.334;2022-09-24T05:52:15;22.93;;;18.90;;
14474;SDS011;7323;50.848;4.334;2022-09-24T05:54:41;22.50;;;18.97;;
14474;SDS011;7323;50.848;4.334;2022-09-24T05:57:06;22.80;;;18.00;;
14474;SDS011;7323;50.848;4.334;2022-09-24T05:59:35;23.20;;;19.83;;
14474;SDS011;7323;50.848;4.334;2022-09-24T06:02:01;21.00;;;18.20;;
14474;SDS011;7323;50.848;4.334;2022-09-24T06:04:26;25.10;;;19.10;;
14474;SDS011;7323;50.848;4.334;2022-09-24T06:06:52;24.17;;;19.13;;
14474;SDS011;7323;50.848;4.334;2022-09-24T06:09:17;22.60;;;18.57;;
14474;SDS011;7323;50.848;4.334;2022-09-24T06:11:43;22.93;;;19.50;;
14474;SDS011;7323;50.848;4.334;2022-09-24T06:14:09;25.17;;;19.47;;
14474;SDS011;7323;50.848;4.334;2022-09-24T06:16:38;21.53;;;18.33;;
14474;SDS011;7323;50.848;4.334;2022-09-24T06:19:03;22.40;;;19.57;;
14474;SDS011;7323;50.848;4.334;2022-09-24T06:21:29;24.93;;;19.53;;
14474;SDS011;7323;50.848;4.334;2022-09-24T06:23:55;23.07;;;18.17;;
14474;SDS011;7323;50.848;4.334;2022-09-24T06:26:20;21.00;;;18.20;;
14474;SDS011;7323;50.848;4.334;2022-09-24T06:28:50;24.93;;;20.67;;
14474;SDS011;7323;50.848;4.334;2022-09-24T06:31:17;21.17;;;18.47;;
14474;SDS011;7323;50.848;4.334;2022-09-24T06:33:43;22.10;;;17.83;;
14474;SDS011;7323;50.848;4.334;2022-09-24T06:36:08;21.10;;;17.40;;
14474;SDS011;7323;50.848;4.334;2022-09-24T06:38:35;23.67;;;18.30;;
14474;SDS011;7323;50.848;4.334;2022-09-24T06:41:03;21.43;;;18.77;;
14474;SDS011;7323;50.848;4.334;2022-09-24T06:43:30;22.33;;;18.50;;
14474;SDS011;7323;50.848;4.334;2022-09-24T06:45:57;21.10;;;17.93;;
14474;SDS011;7323;50.848;4.334;2022-09-24T06:48:24;21.00;;;17.97;;
14474;SDS011;7323;50.848;4.334;2022-09-24T06:50:52;20.97;;;18.53;;
14474;SDS011;7323;50.848;4.334;2022-09-24T06:53:20;19.93;;;17.83;;
14474;SDS011;7323;50.848;4.334;2022-09-24T06:55:45;22.47;;;18.83;;
14474;SDS011;7323;50.848;4.334;2022-09-24T06:58:16;23.10;;;17.63;;
14474;SDS011;7323;50.848;4.334;2022-09-24T07:00:49;23.47;;;18.77;;
14474;SDS011;7323;50.848;4.334;2022-09-24T07:03:17;21.67;;;17.53;;
14474;SDS011;7323;50.848;4.334;2022-09-24T07:05:46;22.07;;;18.63;;
14474;SDS011;7323;50.848;4.334;2022-09-24T07:08:21;21.30;;;17.97;;
14474;SDS011;7323;50.848;4.334;2022-09-24T07:10:50;23.57;;;18.43;;
14474;SDS011;7323;50.848;4.334;2022-09-24T07:13:21;23.53;;;18.97;;
14474;SDS011;7323;50.848;4.334;2022-09-24T07:15:50;22.63;;;19.20;;
14474;SDS011;7323;50.848;4.334;2022-09-24T07:18:16;23.47;;;18.40;;
14474;SDS011;7323;50.848;4.334;2022-09-24T07:20:44;19.77;;;17.63;;
14474;SDS011;7323;50.848;4.334;2022-09-24T07:23:38;21.30;;;17.63;;
14474;SDS011;7323;50.848;4.334;2022-09-24T07:26:02;22.93;;;18.80;;
14474;SDS011;7323;50.848;4.334;2022-09-24T07:28:28;21.73;;;18.70;;
14474;SDS011;7323;50.848;4.334;2022-09-24T07:30:55;24.20;;;19.63;;
14474;SDS011;7323;50.848;4.334;2022-09-24T07:33:23;21.90;;;18.53;;
14474;SDS011;7323;50.848;4.334;2022-09-24T07:35:48;22.17;;;19.00;;
14474;SDS011;7323;50.848;4.334;2022-09-24T07:38:15;22.13;;;18.60;;
14474;SDS011;7323;50.848;4.334;2022-09-24T07:40:41;20.67;;;17.13;;
14474;SDS011;7323;50.848;4.334;2022-09-24T07:43:08;21.20;;;18.10;;
14474;SDS011;7323;50.848;4.334;2022-09-24T07:45:40;21.30;;;18.30;;
14474;SDS011;7323;50.848;4.334;2022-09-24T07:48:08;20.17;;;17.87;;
14474;SDS011;7323;50.848;4.334;2022-09-24T07:50:37;18.97;;;16.80;;
14474;SDS011;7323;50.848;4.334;2022-09-24T07:53:04;19.73;;;17.20;;
14474;SDS011;7323;50.848;4.334;2022-09-24T07:55:30;21.50;;;18.10;;
14474;SDS011;7323;50.848;4.334;2022-09-24T07:57:57;25.03;;;19.40;;
14474;SDS011;7323;50.848;4.334;2022-09-24T08:00:25;22.87;;;18.53;;
14474;SDS011;7323;50.848;4.334;2022-09-24T08:02:52;20.97;;;17.67;;
14474;SDS011;7323;50.848;4.334;2022-09-24T08:05:20;21.87;;;18.17;;
14474;SDS011;7323;50.848;4.334;2022-09-24T08:07:55;20.17;;;17.53;;
14474;SDS011;7323;50.848;4.334;2022-09-24T08:10:22;20.47;;;18.00;;
14474;SDS011;7323;50.848;4.334;2022-09-24T08:12:48;21.57;;;17.80;;
14474;SDS011;7323;50.848;4.334;2022-09-24T08:15:14;19.67;;;16.63;;
14474;SDS011;7323;50.848;4.334;2022-09-24T08:17:41;22.03;;;17.33;;
14474;SDS011;7323;50.848;4.334;2022-09-24T08:20:07;23.47;;;18.33;;
14474;SDS011;7323;50.848;4.334;2022-09-24T08:22:33;21.90;;;18.27;;
14474;SDS011;7323;50.848;4.334;2022-09-24T08:25:01;22.57;;;18.60;;
14474;SDS011;7323;50.848;4.334;2022-09-24T08:27:28;23.50;;;17.83;;
14474;SDS011;7323;50.848;4.334;2022-09-24T08:32:27;22.27;;;18.50;;
14474;SDS011;7323;50.848;4.334;2022-09-24T08:34:53;21.03;;;17.63;;
14474;SDS011;7323;50.848;4.334;2022-09-24T08:37:19;22.43;;;18.03;;
14474;SDS011;7323;50.848;4.334;2022-09-24T08:39:44;20.53;;;17.00;;
14474;SDS011;7323;50.848;4.334;2022-09-24T08:42:11;23.10;;;18.10;;
14474;SDS011;7323;50.848;4.334;2022-09-24T08:44:46;24.17;;;18.10;;
14474;SDS011;7323;50.848;4.334;2022-09-24T08:50:22;19.67;;;17.13;;
14474;SDS011;7323;50.848;4.334;2022-09-24T08:55:59;19.40;;;16.83;;
14474;SDS011;7323;50.848;4.334;2022-09-24T09:06:04;18.93;;;15.90;;
14474;SDS011;7323;50.848;4.334;2022-09-24T09:08:57;19.73;;;16.27;;
14474;SDS011;7323;50.848;4.334;2022-09-24T09:11:31;19.53;;;15.73;;
14474;SDS011;7323;50.848;4.334;2022-09-24T09:14:08;18.70;;;15.73;;
14474;SDS011;7323;50.848;4.334;2022-09-24T09:16:56;18.83;;;15.63;;
14474;SDS011;7323;50.848;4.334;2022-09-24T09:19:34;19.00;;;15.33;;
14474;SDS011;7323;50.848;4.334;2022-09-24T09:22:12;19.73;;;15.90;;
14474;SDS011;7323;50.848;4.334;2022-09-24T09:24:43;17.07;;;15.27;;
14474;SDS011;7323;50.848;4.334;2022-09-24T09:27:12;18.53;;;16.27;;
14474;SDS011;7323;50.848;4.334;2022-09-24T09:29:39;19.00;;;15.53;;
14474;SDS011;7323;50.848;4.334;2022-09-24T09:44:42;16.97;;;15.17;;
14474;SDS011;7323;50.848;4.334;2022-09-24T09:47:46;18.80;;;14.73;;
14474;SDS011;7323;50.848;4.334;2022-09-24T09:52:54;17.90;;;15.40;;
14474;SDS011;7323;50.848;4.334;2022-09-24T09:55:23;17.03;;;14.80;;
14474;SDS011;7323;50.848;4.334;2022-09-24T09:57:51;16.13;;;14.23;;
14474;SDS011;7323;50.848;4.334;2022-09-24T10:00:25;17.47;;;13.83;;
14474;SDS011;7323;50.848;4.334;2022-09-24T10:02:57;18.47;;;14.90;;
14474;SDS011;7323;50.848;4.334;2022-09-24T10:05:24;15.43;;;13.80;;
14474;SDS011;7323;50.848;4.334;2022-09-24T10:07:55;16.80;;;14.10;;
14474;SDS011;7323;50.848;4.334;2022-09-24T10:10:22;19.83;;;15.37;;
14474;SDS011;7323;50.848;4.334;2022-09-24T10:13:15;17.07;;;14.87;;
14474;SDS011;7323;50.848;4.334;2022-09-24T10:16:01;18.37;;;14.37;;
14474;SDS011;7323;50.848;4.334;2022-09-24T10:18:48;17.10;;;14.23;;
14474;SDS011;7323;50.848;4.334;2022-09-24T10:24:02;19.13;;;15.53;;
14474;SDS011;7323;50.848;4.334;2022-09-24T10:26:36;16.87;;;15.07;;
14474;SDS011;7323;50.848;4.334;2022-09-24T10:29:04;16.00;;;13.83;;
14474;SDS011;7323;50.848;4.334;2022-09-24T10:31:58;17.77;;;15.00;;
14474;SDS011;7323;50.848;4.334;2022-09-24T10:34:28;17.00;;;14.40;;
14474;SDS011;7323;50.848;4.334;2022-09-24T10:36:59;17.20;;;14.40;;
14474;SDS011;7323;50.848;4.334;2022-09-24T10:39:28;16.70;;;14.33;;
14474;SDS011;7323;50.848;4.334;2022-09-24T10:41:57;16.90;;;14.13;;
14474;SDS011;7323;50.848;4.334;2022-09-24T10:44:33;19.23;;;14.83;;
14474;SDS011;7323;50.848;4.334;2022-09-24T10:53:06;16.80;;;14.10;;
14474;SDS011;7323;50.848;4.334;2022-09-24T11:01:06;15.87;;;13.27;;
14474;SDS011;7323;50.848;4.334;2022-09-24T11:10:11;18.00;;;13.97;;
14474;SDS011;7323;50.848;4.334;2022-09-24T11:30:09;15.80;;;14.20;;
14474;SDS011;7323;50.848;4.334;2022-09-24T11:32:53;17.10;;;13.97;;
14474;SDS011;7323;50.848;4.334;2022-09-24T11:57:16;19.40;;;16.33;;
14474;SDS011;7323;50.848;4.334;2022-09-24T11:59:53;20.67;;;17.13;;
14474;SDS011;7323;50.848;4.334;2022-09-24T12:08:08;20.73;;;17.20;;
14474;SDS011;7323;50.848;4.334;2022-09-24T12:11:15;20.97;;;18.03;;
14474;SDS011;7323;50.848;4.334;2022-09-24T12:13:54;19.77;;;17.00;;
14474;SDS011;7323;50.848;4.334;2022-09-24T12:16:26;22.33;;;17.77;;
14474;SDS011;7323;50.848;4.334;2022-09-24T12:19:00;19.10;;;17.10;;
14474;SDS011;7323;50.848;4.334;2022-09-24T12:21:38;20.43;;;18.37;;
14474;SDS011;7323;50.848;4.334;2022-09-24T12:24:40;20.67;;;16.90;;
14474;SDS011;7323;50.848;4.334;2022-09-24T12:27:24;19.40;;;16.77;;
14474;SDS011;7323;50.848;4.334;2022-09-24T12:38:07;16.00;;;14.30;;
14474;SDS011;7323;50.848;4.334;2022-09-24T12:57:23;14.93;;;13.20;;
14474;SDS011;7323;50.848;4.334;2022-09-24T12:59:53;14.63;;;13.07;;
14474;SDS011;7323;50.848;4.334;2022-09-24T13:04:50;14.97;;;13.33;;
14474;SDS011;7323;50.848;4.334;2022-09-24T13:07:42;14.40;;;12.90;;
14474;SDS011;7323;50.848;4.334;2022-09-24T13:11:04;15.70;;;13.97;;
14474;SDS011;7323;50.848;4.334;2022-09-24T13:18:55;18.03;;;16.27;;
14474;SDS011;7323;50.848;4.334;2022-09-24T13:21:25;17.80;;;15.67;;
14474;SDS011;7323;50.848;4.334;2022-09-24T13:23:54;16.97;;;14.97;;
14474;SDS011;7323;50.848;4.334;2022-09-24T13:39:12;17.70;;;15.90;;
14474;SDS011;7323;50.848;4.334;2022-09-24T13:56:42;17.13;;;15.43;;
14474;SDS011;7323;50.848;4.334;2022-09-24T13:59:23;19.07;;;17.17;;
14474;SDS011;7323;50.848;4.334;2022-09-24T14:01:49;19.07;;;17.07;;
14474;SDS011;7323;50.848;4.334;2022-09-24T14:04:19;18.43;;;16.67;;
14474;SDS011;7323;50.848;4.334;2022-09-24T14:12:12;16.27;;;14.77;;
14474;SDS011;7323;50.848;4.334;2022-09-24T14:14:44;17.30;;;15.60;;
14474;SDS011;7323;50.848;4.334;2022-09-24T14:17:14;15.93;;;14.33;;
14474;SDS011;7323;50.848;4.334;2022-09-24T14:19:44;16.67;;;15.13;;
14474;SDS011;7323;50.848;4.334;2022-09-24T14:22:18;14.90;;;13.50;;
14474;SDS011;7323;50.848;4.334;2022-09-24T14:27:39;15.27;;;13.67;;
14474;SDS011;7323;50.848;4.334;2022-09-24T14:30:21;13.57;;;12.33;;
14474;SDS011;7323;50.848;4.334;2022-09-24T14:32:56;13.27;;;12.13;;
14474;SDS011;7323;50.848;4.334;2022-09-24T14:35:39;13.53;;;12.23;;
14474;SDS011;7323;50.848;4.334;2022-09-24T14:40:47;12.53;;;11.43;;
14474;SDS011;7323;50.848;4.334;2022-09-24T14:43:27;11.90;;;10.90;;
14474;SDS011;7323;50.848;4.334;2022-09-24T14:46:01;11.00;;;9.93;;
14474;SDS011;7323;50.848;4.334;2022-09-24T14:48:38;9.90;;;8.90;;
14474;SDS011;7323;50.848;4.334;2022-09-24T14:51:28;10.80;;;9.77;;
14474;SDS011;7323;50.848;4.334;2022-09-24T14:53:59;10.97;;;10.07;;
14474;SDS011;7323;50.848;4.334;2022-09-24T14:56:46;10.80;;;9.80;;
14474;SDS011;7323;50.848;4.334;2022-09-24T14:59:12;8.30;;;7.60;;
14474;SDS011;7323;50.848;4.334;2022-09-24T15:01:55;9.07;;;8.23;;
14474;SDS011;7323;50.848;4.334;2022-09-24T15:04:39;7.83;;;6.50;;
14474;SDS011;7323;50.848;4.334;2022-09-24T15:07:17;8.80;;;6.77;;
14474;SDS011;7323;50.848;4.334;2022-09-24T15:09:48;6.70;;;5.90;;
14474;SDS011;7323;50.848;4.334;2022-09-24T15:15:29;6.70;;;6.10;;
14474;SDS011;7323;50.848;4.334;2022-09-24T15:20:39;7.73;;;7.03;;
14474;SDS011;7323;50.848;4.334;2022-09-24T15:23:08;8.20;;;7.40;;
14474;SDS011;7323;50.848;4.334;2022-09-24T15:25:44;7.20;;;6.47;;
14474;SDS011;7323;50.848;4.334;2022-09-24T15:28:13;6.40;;;5.80;;
14474;SDS011;7323;50.848;4.334;2022-09-24T15:30:42;6.67;;;6.00;;
14474;SDS011;7323;50.848;4.334;2022-09-24T15:33:19;7.90;;;6.27;;
14474;SDS011;7323;50.848;4.334;2022-09-24T15:35:56;8.47;;;6.30;;
14474;SDS011;7323;50.848;4.334;2022-09-24T15:41:01;6.70;;;6.10;;
14474;SDS011;7323;50.848;4.334;2022-09-24T15:43:42;7.80;;;6.80;;
14474;SDS011;7323;50.848;4.334;2022-09-24T15:46:13;7.20;;;6.50;;
14474;SDS011;7323;50.848;4.334;2022-09-24T15:48:39;8.10;;;7.13;;
14474;SDS011;7323;50.848;4.334;2022-09-24T15:51:05;9.43;;;8.33;;
14474;SDS011;7323;50.848;4.334;2022-09-24T15:56:08;8.30;;;7.37;;
14474;SDS011;7323;50.848;4.334;2022-09-24T15:58:46;8.43;;;7.57;;
14474;SDS011;7323;50.848;4.334;2022-09-24T16:01:32;11.63;;;10.20;;
14474;SDS011;7323;50.848;4.334;2022-09-24T16:04:06;12.20;;;9.53;;
14474;SDS011;7323;50.848;4.334;2022-09-24T16:16:08;9.27;;;8.37;;
14474;SDS011;7323;50.848;4.334;2022-09-24T16:18:35;10.83;;;8.17;;
14474;SDS011;7323;50.848;4.334;2022-09-24T16:21:14;10.73;;;9.00;;
14474;SDS011;7323;50.848;4.334;2022-09-24T16:23:41;9.67;;;8.57;;
14474;SDS011;7323;50.848;4.334;2022-09-24T16:26:08;11.47;;;8.97;;
14474;SDS011;7323;50.848;4.334;2022-09-24T16:28:45;11.37;;;9.53;;
14474;SDS011;7323;50.848;4.334;2022-09-24T16:31:18;10.83;;;8.80;;
14474;SDS011;7323;50.848;4.334;2022-09-24T16:34:04;13.70;;;10.13;;
14474;SDS011;7323;50.848;4.334;2022-09-24T16:36:51;14.73;;;12.03;;
14474;SDS011;7323;50.848;4.334;2022-09-24T16:39:21;14.70;;;12.40;;
14474;SDS011;7323;50.848;4.334;2022-09-24T16:41:47;13.47;;;11.43;;
14474;SDS011;7323;50.848;4.334;2022-09-24T16:44:27;13.80;;;12.33;;
14474;SDS011;7323;50.848;4.334;2022-09-24T16:47:11;12.17;;;10.83;;
14474;SDS011;7323;50.848;4.334;2022-09-24T16:49:44;13.83;;;11.40;;
14474;SDS011;7323;50.848;4.334;2022-09-24T16:52:23;18.03;;;15.27;;
14474;SDS011;7323;50.848;4.334;2022-09-24T16:54:52;17.90;;;14.33;;
14474;SDS011;7323;50.848;4.334;2022-09-24T16:57:24;17.33;;;15.53;;
14474;SDS011;7323;50.848;4.334;2022-09-24T17:03:25;14.00;;;11.90;;
14474;SDS011;7323;50.848;4.334;2022-09-24T17:08:58;9.03;;;7.17;;
14474;SDS011;7323;50.848;4.334;2022-09-24T17:11:48;8.20;;;6.20;;
14474;SDS011;7323;50.848;4.334;2022-09-24T17:14:24;10.13;;;6.17;;
14474;SDS011;7323;50.848;4.334;2022-09-24T17:17:09;8.23;;;5.47;;
14474;SDS011;7323;50.848;4.334;2022-09-24T17:19:42;7.60;;;5.87;;
14474;SDS011;7323;50.848;4.334;2022-09-24T17:22:13;7.47;;;5.47;;
14474;SDS011;7323;50.848;4.334;2022-09-24T17:24:40;6.50;;;4.70;;
14474;SDS011;7323;50.848;4.334;2022-09-24T17:27:08;6.80;;;4.60;;
14474;SDS011;7323;50.848;4.334;2022-09-24T17:29:37;8.77;;;5.37;;
14474;SDS011;7323;50.848;4.334;2022-09-24T17:32:03;6.93;;;5.47;;
14474;SDS011;7323;50.848;4.334;2022-09-24T17:34:30;11.70;;;7.23;;
14474;SDS011;7323;50.848;4.334;2022-09-24T17:36:57;10.07;;;7.17;;
14474;SDS011;7323;50.848;4.334;2022-09-24T17:39:24;13.23;;;8.43;;
14474;SDS011;7323;50.848;4.334;2022-09-24T17:41:55;12.10;;;8.97;;
14474;SDS011;7323;50.848;4.334;2022-09-24T17:44:21;9.50;;;6.53;;
14474;SDS011;7323;50.848;4.334;2022-09-24T17:46:50;8.70;;;5.07;;
14474;SDS011;7323;50.848;4.334;2022-09-24T17:49:21;9.67;;;5.87;;
14474;SDS011;7323;50.848;4.334;2022-09-24T17:51:47;7.67;;;5.50;;
14474;SDS011;7323;50.848;4.334;2022-09-24T17:56:52;7.47;;;4.60;;
14474;SDS011;7323;50.848;4.334;2022-09-24T17:59:18;9.40;;;4.83;;
14474;SDS011;7323;50.848;4.334;2022-09-24T18:02:03;8.07;;;4.67;;
14474;SDS011;7323;50.848;4.334;2022-09-24T18:04:30;8.13;;;4.90;;
14474;SDS011;7323;50.848;4.334;2022-09-24T18:06:59;7.03;;;4.30;;
14474;SDS011;7323;50.848;4.334;2022-09-24T18:09:26;7.23;;;4.57;;
14474;SDS011;7323;50.848;4.334;2022-09-24T18:12:19;10.93;;;5.03;;
14474;SDS011;7323;50.848;4.334;2022-09-24T18:14:55;6.50;;;4.10;;
14474;SDS011;7323;50.848;4.334;2022-09-24T18:17:26;8.13;;;4.73;;
14474;SDS011;7323;50.848;4.334;2022-09-24T18:19:52;7.53;;;4.87;;
14474;SDS011;7323;50.848;4.334;2022-09-24T18:22:18;8.80;;;5.27;;
14474;SDS011;7323;50.848;4.334;2022-09-24T18:24:46;9.53;;;5.47;;
14474;SDS011;7323;50.848;4.334;2022-09-24T18:27:15;8.40;;;4.50;;
14474;SDS011;7323;50.848;4.334;2022-09-24T18:29:43;8.00;;;4.23;;
14474;SDS011;7323;50.848;4.334;2022-09-24T18:32:11;7.60;;;4.53;;
14474;SDS011;7323;50.848;4.334;2022-09-24T18:34:45;8.70;;;4.90;;
14474;SDS011;7323;50.848;4.334;2022-09-24T18:40:17;15.03;;;5.77;;
14474;SDS011;7323;50.848;4.334;2022-09-24T18:42:49;8.63;;;5.37;;
14474;SDS011;7323;50.848;4.334;2022-09-24T18:45:25;9.47;;;5.97;;
14474;SDS011;7323;50.848;4.334;2022-09-24T18:47:52;11.83;;;7.10;;